Decoded Metar for LFPG (PARIS CHARLES DE GAULLE in FRANCE) (IATA:CDG) | Meteo·Mobile Aviation Weather
aviador You're here:

LFPG Decoded Metar

PARIS CHARLES DE GAULLE in FRANCE
Report Time2019-11-16 00:30:00
UTC Time2019-11-16 00:56:57
Flight Rules ifr IFR
Wind150° at 09 kt
W.Decomp.*RWY 09: 4.4 kt HW 7.9 kt RCW
RWY 08: 2.9 kt HW 8.5 kt RCW
Visibility9999 m
Phenomena:N/A
Clouds:Broken 008 Hf
Expected CloudBase > 400 ft AGL from Temp-Dew spread
Ceiling800 ft
Temp04°C (ISA -10)
Dew Point03°C (93% RH)
AAT-0.7°C
QNH1001 hPa
Density Alt-371 ft
Elevation358 ft
Report Wrong Elevation
Raw Report
LFPG 160030Z 15009KT 9999 BKN008 04/03 Q1001 NOSIG=

Extra information for LFPG:More info

Metar Taf Metar & Taf Last 4 Metars F.Rules Stats Wind Profile Meteogram Temp Stats Airport Information Weather charts Add Link Nearby VenuesMetar ALERT Operation Metar Decoded Social comments